sensor_id;sensor_type;location;lat;lon;timestamp;temperature;humidity
75457;SHT31;64036;48.266;14.192;2024-03-07T00:02:07;7.79;71.35
75457;SHT31;64036;48.266;14.192;2024-03-07T00:04:33;7.74;71.43
75457;SHT31;64036;48.266;14.192;2024-03-07T00:07:04;7.69;71.51
75457;SHT31;64036;48.266;14.192;2024-03-07T00:09:34;7.64;71.63
75457;SHT31;64036;48.266;14.192;2024-03-07T00:12:03;7.61;71.76
75457;SHT31;64036;48.266;14.192;2024-03-07T00:14:33;7.57;71.76
75457;SHT31;64036;48.266;14.192;2024-03-07T00:17:00;7.56;71.77
75457;SHT31;64036;48.266;14.192;2024-03-07T00:19:27;7.57;71.61
75457;SHT31;64036;48.266;14.192;2024-03-07T00:21:57;7.56;71.60
75457;SHT31;64036;48.266;14.192;2024-03-07T00:24:23;7.52;71.58
75457;SHT31;64036;48.266;14.192;2024-03-07T00:26:50;7.48;71.57
75457;SHT31;64036;48.266;14.192;2024-03-07T00:29:16;7.47;71.51
75457;SHT31;64036;48.266;14.192;2024-03-07T00:31:44;7.43;71.50
75457;SHT31;64036;48.266;14.192;2024-03-07T00:34:12;7.34;71.49
75457;SHT31;64036;48.266;14.192;2024-03-07T00:36:44;7.22;71.66
75457;SHT31;64036;48.266;14.192;2024-03-07T00:39:11;7.12;71.89
75457;SHT31;64036;48.266;14.192;2024-03-07T00:41:41;7.05;72.00
75457;SHT31;64036;48.266;14.192;2024-03-07T00:44:07;6.92;71.99
75457;SHT31;64036;48.266;14.192;2024-03-07T00:46:37;6.80;72.29
75457;SHT31;64036;48.266;14.192;2024-03-07T00:49:03;6.75;72.39
75457;SHT31;64036;48.266;14.192;2024-03-07T00:51:30;6.73;72.38
75457;SHT31;64036;48.266;14.192;2024-03-07T00:53:56;6.66;72.25
75457;SHT31;64036;48.266;14.192;2024-03-07T00:56:23;6.61;72.35
75457;SHT31;64036;48.266;14.192;2024-03-07T00:58:49;6.59;72.01
75457;SHT31;64036;48.266;14.192;2024-03-07T01:01:17;6.56;71.42
75457;SHT31;64036;48.266;14.192;2024-03-07T01:03:46;6.49;71.37
75457;SHT31;64036;48.266;14.192;2024-03-07T01:06:12;6.40;71.85
75457;SHT31;64036;48.266;14.192;2024-03-07T01:08:38;6.34;71.85
75457;SHT31;64036;48.266;14.192;2024-03-07T01:11:05;6.34;72.08
75457;SHT31;64036;48.266;14.192;2024-03-07T01:13:40;6.36;72.03
75457;SHT31;64036;48.266;14.192;2024-03-07T01:16:07;6.33;71.75
75457;SHT31;64036;48.266;14.192;2024-03-07T01:18:33;6.28;71.46
75457;SHT31;64036;48.266;14.192;2024-03-07T01:21:00;6.24;71.21
75457;SHT31;64036;48.266;14.192;2024-03-07T01:23:26;6.21;70.84
75457;SHT31;64036;48.266;14.192;2024-03-07T01:25:55;6.16;70.69
75457;SHT31;64036;48.266;14.192;2024-03-07T01:28:23;6.09;70.78
75457;SHT31;64036;48.266;14.192;2024-03-07T01:30:55;5.99;70.88
75457;SHT31;64036;48.266;14.192;2024-03-07T01:33:22;5.87;70.95
75457;SHT31;64036;48.266;14.192;2024-03-07T01:35:48;5.81;70.91
75457;SHT31;64036;48.266;14.192;2024-03-07T01:38:14;5.80;70.92
75457;SHT31;64036;48.266;14.192;2024-03-07T01:40:41;5.74;70.95
75457;SHT31;64036;48.266;14.192;2024-03-07T01:43:07;5.68;71.07
75457;SHT31;64036;48.266;14.192;2024-03-07T01:45:34;5.63;71.15
75457;SHT31;64036;48.266;14.192;2024-03-07T01:48:08;5.58;71.21
75457;SHT31;64036;48.266;14.192;2024-03-07T01:50:36;5.52;71.20
75457;SHT31;64036;48.266;14.192;2024-03-07T01:53:08;5.45;71.14
75457;SHT31;64036;48.266;14.192;2024-03-07T01:55:36;5.40;71.12
75457;SHT31;64036;48.266;14.192;2024-03-07T01:58:02;5.28;71.17
75457;SHT31;64036;48.266;14.192;2024-03-07T02:00:31;5.09;71.56
75457;SHT31;64036;48.266;14.192;2024-03-07T02:02:57;4.99;71.86
75457;SHT31;64036;48.266;14.192;2024-03-07T02:05:23;4.91;72.13
75457;SHT31;64036;48.266;14.192;2024-03-07T02:07:50;4.86;72.28
75457;SHT31;64036;48.266;14.192;2024-03-07T02:10:16;4.88;72.17
75457;SHT31;64036;48.266;14.192;2024-03-07T02:12:43;4.89;72.16
75457;SHT31;64036;48.266;14.192;2024-03-07T02:15:09;4.90;72.32
75457;SHT31;64036;48.266;14.192;2024-03-07T02:17:36;4.99;72.32
75457;SHT31;64036;48.266;14.192;2024-03-07T02:20:06;5.02;72.07
75457;SHT31;64036;48.266;14.192;2024-03-07T02:22:35;5.03;71.76
75457;SHT31;64036;48.266;14.192;2024-03-07T02:25:05;5.05;71.80
75457;SHT31;64036;48.266;14.192;2024-03-07T02:27:32;5.10;71.65
75457;SHT31;64036;48.266;14.192;2024-03-07T02:29:57;5.09;71.42
75457;SHT31;64036;48.266;14.192;2024-03-07T02:32:23;4.95;71.71
75457;SHT31;64036;48.266;14.192;2024-03-07T02:34:49;4.89;71.98
75457;SHT31;64036;48.266;14.192;2024-03-07T02:37:14;4.93;71.72
75457;SHT31;64036;48.266;14.192;2024-03-07T02:39:40;4.95;71.62
75457;SHT31;64036;48.266;14.192;2024-03-07T02:42:06;4.97;71.55
75457;SHT31;64036;48.266;14.192;2024-03-07T02:44:31;4.98;71.47
75457;SHT31;64036;48.266;14.192;2024-03-07T02:46:58;4.98;71.51
75457;SHT31;64036;48.266;14.192;2024-03-07T02:49:24;4.97;71.69
75457;SHT31;64036;48.266;14.192;2024-03-07T02:51:50;4.95;71.92
75457;SHT31;64036;48.266;14.192;2024-03-07T02:54:15;4.96;71.98
75457;SHT31;64036;48.266;14.192;2024-03-07T02:56:41;4.99;72.02
75457;SHT31;64036;48.266;14.192;2024-03-07T02:59:07;5.02;72.12
75457;SHT31;64036;48.266;14.192;2024-03-07T03:01:33;5.08;72.02
75457;SHT31;64036;48.266;14.192;2024-03-07T03:03:58;5.11;72.00
75457;SHT31;64036;48.266;14.192;2024-03-07T03:06:24;5.11;72.17
75457;SHT31;64036;48.266;14.192;2024-03-07T03:08:50;5.08;72.29
75457;SHT31;64036;48.266;14.192;2024-03-07T03:11:19;5.04;72.37
75457;SHT31;64036;48.266;14.192;2024-03-07T03:13:45;5.03;72.34
75457;SHT31;64036;48.266;14.192;2024-03-07T03:16:13;5.03;72.42
75457;SHT31;64036;48.266;14.192;2024-03-07T03:18:38;4.99;72.78
75457;SHT31;64036;48.266;14.192;2024-03-07T03:21:04;4.97;73.03
75457;SHT31;64036;48.266;14.192;2024-03-07T03:23:30;4.92;73.21
75457;SHT31;64036;48.266;14.192;2024-03-07T03:25:56;4.92;73.31
75457;SHT31;64036;48.266;14.192;2024-03-07T03:28:22;4.95;73.31
75457;SHT31;64036;48.266;14.192;2024-03-07T03:30:49;4.95;73.34
75457;SHT31;64036;48.266;14.192;2024-03-07T03:33:16;4.98;73.24
75457;SHT31;64036;48.266;14.192;2024-03-07T03:35:43;5.00;73.11
75457;SHT31;64036;48.266;14.192;2024-03-07T03:38:09;5.02;73.17
75457;SHT31;64036;48.266;14.192;2024-03-07T03:40:35;5.03;73.23
75457;SHT31;64036;48.266;14.192;2024-03-07T03:43:02;5.04;73.36
75457;SHT31;64036;48.266;14.192;2024-03-07T03:45:27;5.09;73.25
75457;SHT31;64036;48.266;14.192;2024-03-07T03:47:53;5.12;73.16
75457;SHT31;64036;48.266;14.192;2024-03-07T03:50:20;5.17;72.99
75457;SHT31;64036;48.266;14.192;2024-03-07T03:52:49;5.24;72.82
75457;SHT31;64036;48.266;14.192;2024-03-07T03:55:15;5.28;72.66
75457;SHT31;64036;48.266;14.192;2024-03-07T03:57:42;5.33;72.60
75457;SHT31;64036;48.266;14.192;2024-03-07T04:00:09;5.32;72.78
75457;SHT31;64036;48.266;14.192;2024-03-07T04:05:10;5.28;73.20
75457;SHT31;64036;48.266;14.192;2024-03-07T04:07:40;5.25;73.38
75457;SHT31;64036;48.266;14.192;2024-03-07T04:10:10;5.27;73.15
75457;SHT31;64036;48.266;14.192;2024-03-07T04:12:38;5.31;73.05
75457;SHT31;64036;48.266;14.192;2024-03-07T04:15:06;5.33;72.91
75457;SHT31;64036;48.266;14.192;2024-03-07T04:17:34;5.36;72.81
75457;SHT31;64036;48.266;14.192;2024-03-07T04:20:00;5.39;72.81
75457;SHT31;64036;48.266;14.192;2024-03-07T04:22:30;5.41;72.81
75457;SHT31;64036;48.266;14.192;2024-03-07T04:24:58;5.41;72.70
75457;SHT31;64036;48.266;14.192;2024-03-07T04:27:24;5.41;72.79
75457;SHT31;64036;48.266;14.192;2024-03-07T04:29:51;5.42;72.87
75457;SHT31;64036;48.266;14.192;2024-03-07T04:32:17;5.43;72.80
75457;SHT31;64036;48.266;14.192;2024-03-07T04:34:46;5.44;72.80
75457;SHT31;64036;48.266;14.192;2024-03-07T04:37:12;5.45;72.87
75457;SHT31;64036;48.266;14.192;2024-03-07T04:39:39;5.45;72.84
75457;SHT31;64036;48.266;14.192;2024-03-07T04:42:06;5.45;72.78
75457;SHT31;64036;48.266;14.192;2024-03-07T04:44:33;5.45;72.78
75457;SHT31;64036;48.266;14.192;2024-03-07T04:47:02;5.46;72.70
75457;SHT31;64036;48.266;14.192;2024-03-07T04:49:30;5.45;72.69
75457;SHT31;64036;48.266;14.192;2024-03-07T04:51:58;5.45;72.96
75457;SHT31;64036;48.266;14.192;2024-03-07T04:54:26;5.45;72.85
75457;SHT31;64036;48.266;14.192;2024-03-07T04:56:54;5.42;72.77
75457;SHT31;64036;48.266;14.192;2024-03-07T04:59:20;5.41;72.98
75457;SHT31;64036;48.266;14.192;2024-03-07T05:01:47;5.41;73.11
75457;SHT31;64036;48.266;14.192;2024-03-07T05:04:15;5.40;73.17
75457;SHT31;64036;48.266;14.192;2024-03-07T05:06:42;5.38;73.43
75457;SHT31;64036;48.266;14.192;2024-03-07T05:09:08;5.37;73.53
75457;SHT31;64036;48.266;14.192;2024-03-07T05:11:48;5.35;73.66
75457;SHT31;64036;48.266;14.192;2024-03-07T05:14:16;5.33;73.87
75457;SHT31;64036;48.266;14.192;2024-03-07T05:16:43;5.33;74.02
75457;SHT31;64036;48.266;14.192;2024-03-07T05:19:09;5.32;74.09
75457;SHT31;64036;48.266;14.192;2024-03-07T05:21:35;5.31;74.33
75457;SHT31;64036;48.266;14.192;2024-03-07T05:24:05;5.29;74.45
75457;SHT31;64036;48.266;14.192;2024-03-07T05:26:33;5.30;74.54
75457;SHT31;64036;48.266;14.192;2024-03-07T05:29:06;5.28;74.73
75457;SHT31;64036;48.266;14.192;2024-03-07T05:31:34;5.27;74.85
75457;SHT31;64036;48.266;14.192;2024-03-07T05:34:01;5.26;74.80
75457;SHT31;64036;48.266;14.192;2024-03-07T05:36:34;5.23;74.92
75457;SHT31;64036;48.266;14.192;2024-03-07T05:39:01;5.22;75.05
75457;SHT31;64036;48.266;14.192;2024-03-07T05:41:34;5.19;75.19
75457;SHT31;64036;48.266;14.192;2024-03-07T05:44:00;5.16;75.23
75457;SHT31;64036;48.266;14.192;2024-03-07T05:46:26;5.14;75.39
75457;SHT31;64036;48.266;14.192;2024-03-07T05:48:52;5.13;75.50
75457;SHT31;64036;48.266;14.192;2024-03-07T05:51:24;5.12;75.51
75457;SHT31;64036;48.266;14.192;2024-03-07T05:53:52;5.11;75.57
75457;SHT31;64036;48.266;14.192;2024-03-07T05:56:18;5.08;75.61
75457;SHT31;64036;48.266;14.192;2024-03-07T05:58:44;5.07;75.59
75457;SHT31;64036;48.266;14.192;2024-03-07T06:01:10;5.07;75.61
75457;SHT31;64036;48.266;14.192;2024-03-07T06:03:36;5.08;75.69
75457;SHT31;64036;48.266;14.192;2024-03-07T06:06:02;5.09;75.65
75457;SHT31;64036;48.266;14.192;2024-03-07T06:08:31;5.12;75.70
75457;SHT31;64036;48.266;14.192;2024-03-07T06:10:57;5.15;75.79
75457;SHT31;64036;48.266;14.192;2024-03-07T06:13:23;5.22;75.81
75457;SHT31;64036;48.266;14.192;2024-03-07T06:15:49;5.23;75.79
75457;SHT31;64036;48.266;14.192;2024-03-07T06:18:14;5.29;75.80
75457;SHT31;64036;48.266;14.192;2024-03-07T06:20:41;5.35;75.79
75457;SHT31;64036;48.266;14.192;2024-03-07T06:23:07;5.37;75.83
75457;SHT31;64036;48.266;14.192;2024-03-07T06:25:35;5.40;75.96
75457;SHT31;64036;48.266;14.192;2024-03-07T06:28:16;5.46;75.99
75457;SHT31;64036;48.266;14.192;2024-03-07T06:30:46;5.51;75.98
75457;SHT31;64036;48.266;14.192;2024-03-07T06:33:13;5.57;75.97
75457;SHT31;64036;48.266;14.192;2024-03-07T06:35:42;5.63;75.90
75457;SHT31;64036;48.266;14.192;2024-03-07T06:38:08;5.66;75.81
75457;SHT31;64036;48.266;14.192;2024-03-07T06:40:35;5.69;75.79
75457;SHT31;64036;48.266;14.192;2024-03-07T06:43:05;5.74;75.65
75457;SHT31;64036;48.266;14.192;2024-03-07T06:45:35;5.77;75.66
75457;SHT31;64036;48.266;14.192;2024-03-07T06:48:02;5.80;75.53
75457;SHT31;64036;48.266;14.192;2024-03-07T06:50:32;5.83;75.38
75457;SHT31;64036;48.266;14.192;2024-03-07T06:53:01;5.87;75.48
75457;SHT31;64036;48.266;14.192;2024-03-07T06:55:28;5.91;75.40
75457;SHT31;64036;48.266;14.192;2024-03-07T06:57:54;5.97;75.28
75457;SHT31;64036;48.266;14.192;2024-03-07T07:00:20;6.01;75.20
75457;SHT31;64036;48.266;14.192;2024-03-07T07:02:47;6.04;75.22
75457;SHT31;64036;48.266;14.192;2024-03-07T07:05:14;6.09;75.20
75457;SHT31;64036;48.266;14.192;2024-03-07T07:07:49;6.16;75.20
75457;SHT31;64036;48.266;14.192;2024-03-07T07:10:16;6.22;75.27
75457;SHT31;64036;48.266;14.192;2024-03-07T07:12:46;6.30;75.46
75457;SHT31;64036;48.266;14.192;2024-03-07T07:15:14;6.36;75.40
75457;SHT31;64036;48.266;14.192;2024-03-07T07:17:44;6.38;75.35
75457;SHT31;64036;48.266;14.192;2024-03-07T07:20:12;6.38;75.31
75457;SHT31;64036;48.266;14.192;2024-03-07T07:22:49;6.42;75.29
75457;SHT31;64036;48.266;14.192;2024-03-07T07:25:15;6.44;75.25
75457;SHT31;64036;48.266;14.192;2024-03-07T07:27:45;6.46;75.30
75457;SHT31;64036;48.266;14.192;2024-03-07T07:30:17;6.51;75.26
75457;SHT31;64036;48.266;14.192;2024-03-07T07:32:44;6.52;75.21
75457;SHT31;64036;48.266;14.192;2024-03-07T07:35:11;6.57;75.03
75457;SHT31;64036;48.266;14.192;2024-03-07T07:37:40;6.63;75.09
75457;SHT31;64036;48.266;14.192;2024-03-07T07:40:11;6.70;75.09
75457;SHT31;64036;48.266;14.192;2024-03-07T07:42:46;6.80;75.11
75457;SHT31;64036;48.266;14.192;2024-03-07T07:45:19;6.93;75.06
75457;SHT31;64036;48.266;14.192;2024-03-07T07:47:51;7.14;74.92
75457;SHT31;64036;48.266;14.192;2024-03-07T07:50:19;7.47;74.55
75457;SHT31;64036;48.266;14.192;2024-03-07T07:52:53;7.86;74.27
75457;SHT31;64036;48.266;14.192;2024-03-07T07:55:26;8.15;74.03
75457;SHT31;64036;48.266;14.192;2024-03-07T07:57:57;8.40;73.67
75457;SHT31;64036;48.266;14.192;2024-03-07T08:00:25;8.52;73.12
75457;SHT31;64036;48.266;14.192;2024-03-07T08:05:35;8.78;72.75
75457;SHT31;64036;48.266;14.192;2024-03-07T08:08:04;8.99;71.62
75457;SHT31;64036;48.266;14.192;2024-03-07T08:10:35;9.15;71.03
75457;SHT31;64036;48.266;14.192;2024-03-07T08:13:03;9.31;70.47
75457;SHT31;64036;48.266;14.192;2024-03-07T08:15:37;9.44;70.19
75457;SHT31;64036;48.266;14.192;2024-03-07T08:18:03;9.60;70.10
75457;SHT31;64036;48.266;14.192;2024-03-07T08:20:33;9.73;69.89
75457;SHT31;64036;48.266;14.192;2024-03-07T08:23:00;9.77;69.26
75457;SHT31;64036;48.266;14.192;2024-03-07T08:25:26;9.74;69.29
75457;SHT31;64036;48.266;14.192;2024-03-07T08:27:54;9.63;69.69
75457;SHT31;64036;48.266;14.192;2024-03-07T08:30:23;9.53;69.84
75457;SHT31;64036;48.266;14.192;2024-03-07T08:32:50;9.48;69.74
75457;SHT31;64036;48.266;14.192;2024-03-07T08:35:19;9.40;69.60
75457;SHT31;64036;48.266;14.192;2024-03-07T08:37:46;9.26;69.32
75457;SHT31;64036;48.266;14.192;2024-03-07T08:40:18;9.20;69.14
75457;SHT31;64036;48.266;14.192;2024-03-07T08:42:46;9.26;69.39
75457;SHT31;64036;48.266;14.192;2024-03-07T08:45:15;9.27;69.31
75457;SHT31;64036;48.266;14.192;2024-03-07T08:47:44;9.24;69.02
75457;SHT31;64036;48.266;14.192;2024-03-07T08:50:17;9.21;68.85
75457;SHT31;64036;48.266;14.192;2024-03-07T08:52:44;9.21;68.64
75457;SHT31;64036;48.266;14.192;2024-03-07T08:55:14;9.26;68.43
75457;SHT31;64036;48.266;14.192;2024-03-07T08:57:42;9.39;68.72
75457;SHT31;64036;48.266;14.192;2024-03-07T09:00:11;9.64;68.54
75457;SHT31;64036;48.266;14.192;2024-03-07T09:02:47;9.95;68.25
75457;SHT31;64036;48.266;14.192;2024-03-07T09:05:22;10.21;67.74
75457;SHT31;64036;48.266;14.192;2024-03-07T09:07:49;10.46;67.65
75457;SHT31;64036;48.266;14.192;2024-03-07T09:10:16;10.62;67.21
75457;SHT31;64036;48.266;14.192;2024-03-07T09:12:45;10.74;67.03
75457;SHT31;64036;48.266;14.192;2024-03-07T09:15:14;10.86;66.44
75457;SHT31;64036;48.266;14.192;2024-03-07T09:17:42;11.18;66.42
75457;SHT31;64036;48.266;14.192;2024-03-07T09:20:09;11.81;65.53
75457;SHT31;64036;48.266;14.192;2024-03-07T09:22:48;12.03;64.74
75457;SHT31;64036;48.266;14.192;2024-03-07T09:25:15;12.05;64.55
75457;SHT31;64036;48.266;14.192;2024-03-07T09:27:42;11.94;63.55
75457;SHT31;64036;48.266;14.192;2024-03-07T09:30:08;11.66;62.97
75457;SHT31;64036;48.266;14.192;2024-03-07T09:32:40;11.40;62.58
75457;SHT31;64036;48.266;14.192;2024-03-07T09:35:07;11.10;62.38
75457;SHT31;64036;48.266;14.192;2024-03-07T09:37:37;10.98;63.26
75457;SHT31;64036;48.266;14.192;2024-03-07T09:40:07;10.99;62.89
75457;SHT31;64036;48.266;14.192;2024-03-07T09:42:37;11.04;63.00
75457;SHT31;64036;48.266;14.192;2024-03-07T09:45:16;11.09;63.66
75457;SHT31;64036;48.266;14.192;2024-03-07T09:47:47;11.09;63.29
75457;SHT31;64036;48.266;14.192;2024-03-07T09:50:18;11.08;63.34
75457;SHT31;64036;48.266;14.192;2024-03-07T09:52:48;11.05;63.70
75457;SHT31;64036;48.266;14.192;2024-03-07T09:55:15;11.05;62.86
75457;SHT31;64036;48.266;14.192;2024-03-07T09:57:42;10.90;62.17
75457;SHT31;64036;48.266;14.192;2024-03-07T10:00:11;10.84;62.53
75457;SHT31;64036;48.266;14.192;2024-03-07T10:02:47;10.89;62.56
75457;SHT31;64036;48.266;14.192;2024-03-07T10:05:18;11.08;62.35
75457;SHT31;64036;48.266;14.192;2024-03-07T10:07:45;11.21;62.03
75457;SHT31;64036;48.266;14.192;2024-03-07T10:10:11;11.26;62.50
75457;SHT31;64036;48.266;14.192;2024-03-07T10:12:37;11.36;63.16
75457;SHT31;64036;48.266;14.192;2024-03-07T10:15:03;11.53;62.69
75457;SHT31;64036;48.266;14.192;2024-03-07T10:17:30;11.68;62.45
75457;SHT31;64036;48.266;14.192;2024-03-07T10:19:59;11.76;61.27
75457;SHT31;64036;48.266;14.192;2024-03-07T10:22:26;11.77;61.47
75457;SHT31;64036;48.266;14.192;2024-03-07T10:24:53;11.81;61.19
75457;SHT31;64036;48.266;14.192;2024-03-07T10:27:21;11.91;60.27
75457;SHT31;64036;48.266;14.192;2024-03-07T10:29:52;12.01;59.97
75457;SHT31;64036;48.266;14.192;2024-03-07T10:32:24;11.97;58.98
75457;SHT31;64036;48.266;14.192;2024-03-07T10:34:50;12.01;59.77
75457;SHT31;64036;48.266;14.192;2024-03-07T10:37:17;12.07;58.85
75457;SHT31;64036;48.266;14.192;2024-03-07T10:39:46;12.08;58.80
75457;SHT31;64036;48.266;14.192;2024-03-07T10:42:14;12.10;59.20
75457;SHT31;64036;48.266;14.192;2024-03-07T10:44:45;12.01;59.02
75457;SHT31;64036;48.266;14.192;2024-03-07T10:47:16;11.87;58.60
75457;SHT31;64036;48.266;14.192;2024-03-07T10:50:03;11.79;58.60
75457;SHT31;64036;48.266;14.192;2024-03-07T10:53:19;11.74;58.15
75457;SHT31;64036;48.266;14.192;2024-03-07T10:59:25;11.26;57.61
75457;SHT31;64036;48.266;14.192;2024-03-07T11:04:52;10.98;58.34
75457;SHT31;64036;48.266;14.192;2024-03-07T11:07:21;10.93;56.81
75457;SHT31;64036;48.266;14.192;2024-03-07T11:09:49;10.92;56.02
75457;SHT31;64036;48.266;14.192;2024-03-07T11:12:17;10.79;55.54
75457;SHT31;64036;48.266;14.192;2024-03-07T11:14:49;10.71;56.39
75457;SHT31;64036;48.266;14.192;2024-03-07T11:17:17;10.67;56.60
75457;SHT31;64036;48.266;14.192;2024-03-07T11:19:44;10.60;56.77
75457;SHT31;64036;48.266;14.192;2024-03-07T11:22:27;10.59;56.41
75457;SHT31;64036;48.266;14.192;2024-03-07T11:25:00;10.69;56.38
75457;SHT31;64036;48.266;14.192;2024-03-07T11:27:44;10.75;56.55
75457;SHT31;64036;48.266;14.192;2024-03-07T11:30:20;10.78;55.26
75457;SHT31;64036;48.266;14.192;2024-03-07T11:32:47;10.67;55.38
75457;SHT31;64036;48.266;14.192;2024-03-07T11:35:18;10.58;56.18
75457;SHT31;64036;48.266;14.192;2024-03-07T11:38:06;10.35;56.17
75457;SHT31;64036;48.266;14.192;2024-03-07T11:43:00;10.17;56.62
75457;SHT31;64036;48.266;14.192;2024-03-07T11:45:30;10.11;56.76
75457;SHT31;64036;48.266;14.192;2024-03-07T11:48:10;10.04;56.61
75457;SHT31;64036;48.266;14.192;2024-03-07T11:50:36;9.96;56.25
75457;SHT31;64036;48.266;14.192;2024-03-07T11:53:04;9.94;56.28
75457;SHT31;64036;48.266;14.192;2024-03-07T11:55:35;9.83;58.77
75457;SHT31;64036;48.266;14.192;2024-03-07T11:58:13;9.45;62.23
75457;SHT31;64036;48.266;14.192;2024-03-07T12:00:46;9.15;63.94
75457;SHT31;64036;48.266;14.192;2024-03-07T12:03:14;8.90;64.16
75457;SHT31;64036;48.266;14.192;2024-03-07T12:05:46;8.67;64.67
75457;SHT31;64036;48.266;14.192;2024-03-07T12:08:13;8.55;65.68
75457;SHT31;64036;48.266;14.192;2024-03-07T12:10:40;8.46;66.39
75457;SHT31;64036;48.266;14.192;2024-03-07T12:13:11;8.40;66.86
75457;SHT31;64036;48.266;14.192;2024-03-07T12:15:40;8.36;67.53
75457;SHT31;64036;48.266;14.192;2024-03-07T12:18:07;8.40;67.74
75457;SHT31;64036;48.266;14.192;2024-03-07T12:20:44;8.42;67.89
75457;SHT31;64036;48.266;14.192;2024-03-07T12:23:19;8.40;67.82
75457;SHT31;64036;48.266;14.192;2024-03-07T12:25:47;8.40;67.59
75457;SHT31;64036;48.266;14.192;2024-03-07T12:28:13;8.30;68.29
75457;SHT31;64036;48.266;14.192;2024-03-07T12:33:11;8.11;68.16
75457;SHT31;64036;48.266;14.192;2024-03-07T12:35:42;8.10;68.30
75457;SHT31;64036;48.266;14.192;2024-03-07T12:38:09;8.06;67.81
75457;SHT31;64036;48.266;14.192;2024-03-07T12:40:39;8.08;68.37
75457;SHT31;64036;48.266;14.192;2024-03-07T12:43:14;8.08;68.47
75457;SHT31;64036;48.266;14.192;2024-03-07T12:45:51;8.10;68.74
75457;SHT31;64036;48.266;14.192;2024-03-07T12:48:21;8.10;68.07
75457;SHT31;64036;48.266;14.192;2024-03-07T12:50:47;8.09;68.59
75457;SHT31;64036;48.266;14.192;2024-03-07T12:53:19;8.06;68.92
75457;SHT31;64036;48.266;14.192;2024-03-07T12:55:51;8.07;69.02
75457;SHT31;64036;48.266;14.192;2024-03-07T12:58:17;8.13;68.65
75457;SHT31;64036;48.266;14.192;2024-03-07T13:00:45;8.16;68.60
75457;SHT31;64036;48.266;14.192;2024-03-07T13:03:11;8.25;68.42
75457;SHT31;64036;48.266;14.192;2024-03-07T13:05:40;8.30;68.19
75457;SHT31;64036;48.266;14.192;2024-03-07T13:08:08;8.36;68.09
75457;SHT31;64036;48.266;14.192;2024-03-07T13:10:43;8.47;67.81
75457;SHT31;64036;48.266;14.192;2024-03-07T13:13:10;8.57;67.50
75457;SHT31;64036;48.266;14.192;2024-03-07T13:15:36;8.58;67.39
75457;SHT31;64036;48.266;14.192;2024-03-07T13:18:07;8.60;67.72
75457;SHT31;64036;48.266;14.192;2024-03-07T13:20:34;8.63;67.20
75457;SHT31;64036;48.266;14.192;2024-03-07T13:23:01;8.63;67.05
75457;SHT31;64036;48.266;14.192;2024-03-07T13:25:28;8.69;67.02
75457;SHT31;64036;48.266;14.192;2024-03-07T13:28:08;8.65;66.99
75457;SHT31;64036;48.266;14.192;2024-03-07T13:30:49;8.53;67.56
75457;SHT31;64036;48.266;14.192;2024-03-07T13:33:16;8.54;67.87
75457;SHT31;64036;48.266;14.192;2024-03-07T13:35:42;8.71;67.45
75457;SHT31;64036;48.266;14.192;2024-03-07T13:38:09;8.83;67.00
75457;SHT31;64036;48.266;14.192;2024-03-07T13:40:35;9.02;66.68
75457;SHT31;64036;48.266;14.192;2024-03-07T13:43:04;9.10;66.16
75457;SHT31;64036;48.266;14.192;2024-03-07T13:45:31;9.10;66.47
75457;SHT31;64036;48.266;14.192;2024-03-07T13:48:04;9.23;66.77
75457;SHT31;64036;48.266;14.192;2024-03-07T13:50:32;9.45;66.48
75457;SHT31;64036;48.266;14.192;2024-03-07T13:52:59;9.66;66.21
75457;SHT31;64036;48.266;14.192;2024-03-07T13:58:50;10.02;65.54
75457;SHT31;64036;48.266;14.192;2024-03-07T14:04:52;10.19;64.11
75457;SHT31;64036;48.266;14.192;2024-03-07T14:23:52;9.83;63.60
75457;SHT31;64036;48.266;14.192;2024-03-07T14:29:44;10.01;62.43
75457;SHT31;64036;48.266;14.192;2024-03-07T14:32:15;9.90;62.00
75457;SHT31;64036;48.266;14.192;2024-03-07T14:34:57;9.74;61.61
75457;SHT31;64036;48.266;14.192;2024-03-07T14:37:49;9.32;61.70
75457;SHT31;64036;48.266;14.192;2024-03-07T14:40:21;8.72;63.77
75457;SHT31;64036;48.266;14.192;2024-03-07T14:42:49;7.99;66.21
75457;SHT31;64036;48.266;14.192;2024-03-07T14:45:19;7.61;67.29
75457;SHT31;64036;48.266;14.192;2024-03-07T14:47:49;7.31;68.72
75457;SHT31;64036;48.266;14.192;2024-03-07T14:50:20;7.04;70.56
75457;SHT31;64036;48.266;14.192;2024-03-07T14:52:48;6.81;71.38
75457;SHT31;64036;48.266;14.192;2024-03-07T14:55:14;6.59;71.70
75457;SHT31;64036;48.266;14.192;2024-03-07T14:57:41;6.42;72.34
75457;SHT31;64036;48.266;14.192;2024-03-07T15:00:09;6.29;72.20
75457;SHT31;64036;48.266;14.192;2024-03-07T15:02:47;6.16;72.24
75457;SHT31;64036;48.266;14.192;2024-03-07T15:05:15;6.14;72.65
75457;SHT31;64036;48.266;14.192;2024-03-07T15:07:51;6.22;72.30
75457;SHT31;64036;48.266;14.192;2024-03-07T15:10:19;6.33;71.95
75457;SHT31;64036;48.266;14.192;2024-03-07T15:12:52;6.40;71.50
75457;SHT31;64036;48.266;14.192;2024-03-07T15:15:18;6.45;71.22
75457;SHT31;64036;48.266;14.192;2024-03-07T15:17:48;6.47;71.37
75457;SHT31;64036;48.266;14.192;2024-03-07T15:20:17;6.50;71.34
75457;SHT31;64036;48.266;14.192;2024-03-07T15:22:58;6.55;70.96
75457;SHT31;64036;48.266;14.192;2024-03-07T15:25:25;6.57;71.10
75457;SHT31;64036;48.266;14.192;2024-03-07T15:27:53;6.61;71.08
75457;SHT31;64036;48.266;14.192;2024-03-07T15:30:24;6.69;71.04
75457;SHT31;64036;48.266;14.192;2024-03-07T15:32:57;6.67;70.76
75457;SHT31;64036;48.266;14.192;2024-03-07T15:35:26;6.61;70.42
75457;SHT31;64036;48.266;14.192;2024-03-07T15:37:52;6.56;70.14
75457;SHT31;64036;48.266;14.192;2024-03-07T15:40:19;6.38;70.33
75457;SHT31;64036;48.266;14.192;2024-03-07T15:42:46;6.25;70.29
75457;SHT31;64036;48.266;14.192;2024-03-07T15:45:17;6.22;71.23
75457;SHT31;64036;48.266;14.192;2024-03-07T15:47:53;6.19;71.24
75457;SHT31;64036;48.266;14.192;2024-03-07T15:50:39;6.06;71.56
75457;SHT31;64036;48.266;14.192;2024-03-07T15:53:09;5.94;72.14
75457;SHT31;64036;48.266;14.192;2024-03-07T15:55:35;5.89;72.50
75457;SHT31;64036;48.266;14.192;2024-03-07T15:58:03;5.84;72.81
75457;SHT31;64036;48.266;14.192;2024-03-07T16:00:32;5.78;73.34
75457;SHT31;64036;48.266;14.192;2024-03-07T16:03:01;5.74;73.75
75457;SHT31;64036;48.266;14.192;2024-03-07T16:05:38;5.68;73.87
75457;SHT31;64036;48.266;14.192;2024-03-07T16:08:07;5.62;73.95
75457;SHT31;64036;48.266;14.192;2024-03-07T16:10:39;5.58;73.80
75457;SHT31;64036;48.266;14.192;2024-03-07T16:13:07;5.55;73.44
75457;SHT31;64036;48.266;14.192;2024-03-07T16:15:37;5.55;73.67
75457;SHT31;64036;48.266;14.192;2024-03-07T16:18:07;5.55;73.66
75457;SHT31;64036;48.266;14.192;2024-03-07T16:20:34;5.56;73.69
75457;SHT31;64036;48.266;14.192;2024-03-07T16:23:01;5.56;74.11